Flight Track Log - Related Links

Times and Time Zones

All times are in EDT time to prevent confusion due to time zone crossing. See the CTL13 flight status page for this flight to view local times or setup timezone preferences in your user account.

Time Position Orientation Groundspeed Altitude Reporting Facility
EDT Latitude Longitude Course Direction KTS MPH feet Rate Location/Type
Fri 08:00:55 PM 40.9486 -84.1808 237° Southwest 125 144 4,900  Level Chicago Center
Fri 08:01:57 PM 40.9303 -84.2133 233° Southwest 117 135 6,100 1,073 Climbing Chicago Center
Fri 08:02:58 PM 40.9175 -84.2403 238° Southwest 107 123 7,100 927 Climbing Chicago Center
Fri 08:04:00 PM 40.9199 -84.1779 232° Southwest  Level FlightAware Approximate
Fri 08:04:00 PM 40.8975 -84.2678 226° Southwest 95 109 8,000  Level Chicago Center
Fri 08:05:00 PM 40.9030 -84.2245 246° West  Level FlightAware Approximate
Fri 08:05:02 PM 40.8761 -84.2903 219° Southwest 93 107 8,100  Level Chicago Center
Fri 08:05:41 PM 40.8617 -84.3058 219° Southwest 95 109 8,400 300 Climbing Indianapolis Center
Fri 08:06:00 PM 40.8806 -84.2690 237° Southwest  Level Estimated
Fri 08:06:42 PM 40.8389 -84.3336 223° Southwest 101 116 8,600  Level Indianapolis Center
Fri 08:07:44 PM 40.8147 -84.3617 221° Southwest 107 123 9,200 484 Climbing Indianapolis Center
Fri 08:08:46 PM 40.7869 -84.3881 216° Southwest 115 132 9,600 424 Climbing Indianapolis Center
Fri 08:09:09 PM 40.7781 -84.3964 215° Southwest 114 131 9,800 424 Climbing Chicago Center
Fri 08:10:11 PM 40.7525 -84.4242 219° Southwest 117 135 10,200 145 Climbing Chicago Center
Fri 08:11:13 PM 40.7203 -84.4586 219° Southwest 120 138 10,100 -48 Descending Chicago Center
Fri 08:12:15 PM 40.6925 -84.4928 223° Southwest 125 144 10,100 -98 Level Chicago Center
Fri 08:13:16 PM 40.6642 -84.5244 220° Southwest 130 150 9,900 -98 Descending Chicago Center
Fri 08:14:18 PM 40.6364 -84.5572 222° Southwest 132 152 9,900  Level Chicago Center
Fri 08:14:56 PM 40.6169 -84.5794 221° Southwest 135 155 9,900 -61 Level Indianapolis Center
Fri 08:15:57 PM 40.5894 -84.6114 221° Southwest 133 153 9,800  Descending Indianapolis Center
Fri 08:16:59 PM 40.5600 -84.6433 220° Southwest 133 153 9,900 49 Climbing Indianapolis Center
Fri 08:18:00 PM 40.5311 -84.6756 220° Southwest 135 155 9,900 49 Level Indianapolis Center
Fri 08:19:02 PM 40.5033 -84.7081 222° Southwest 134 154 10,000 48 Climbing Indianapolis Center
Fri 08:20:04 PM 40.4689 -84.7456 220° Southwest 135 155 10,000 71 Level Indianapolis Center
Fri 08:20:26 PM 40.4586 -84.7561 218° Southwest 133 153 10,100  Climbing Indianapolis Center
Fri 08:21:05 PM 40.4397 -84.7744 216° Southwest 133 153 10,000  Descending Indianapolis Center
Fri 08:22:07 PM 40.4122 -84.8067 222° Southwest 132 152 10,100  Climbing Indianapolis Center
Fri 08:22:27 PM 40.4011 -84.8192 221° Southwest 134 154 10,000 -98 Descending Indianapolis Center
Fri 08:23:08 PM 40.3836 -84.8392 221° Southwest 133 153 10,000  Level Indianapolis Center
Fri 08:23:28 PM 40.3731 -84.8508 220° Southwest 136 157 10,000  Level Indianapolis Center
Fri 08:24:10 PM 40.3594 -84.8669 222° Southwest 134 154 10,000  Level Indianapolis Center
Fri 08:24:29 PM 40.3428 -84.8875 223° Southwest 138 159 10,000  Level Indianapolis Center
Fri 08:25:12 PM 40.3247 -84.9053 217° Southwest 136 157 10,000  Level Indianapolis Center
Fri 08:26:13 PM 40.2950 -84.9386 221° Southwest 138 159 10,000  Level Indianapolis Center
Fri 08:27:15 PM 40.2656 -84.9708 220° Southwest 138 159 10,000  Level Indianapolis Center
Fri 08:28:16 PM 40.2483 -85.0097 240° Southwest 138 159 10,000  Level Indianapolis Center
Fri 08:29:18 PM 40.2319 -85.0561 245° Southwest 137 158 10,000  Level Indianapolis Center
Fri 08:30:32 PM 40.2119 -85.1178 247° West 134 154 10,000  Level Indianapolis Center
Fri 08:31:21 PM 40.2003 -85.1558 248° West 135 155 10,000 90 Level Indianapolis Center
Fri 08:31:39 PM 40.1969 -85.1703 253° West 135 155 10,100  Climbing Indianapolis Center
Fri 08:32:23 PM 40.1872 -85.2006 247° West 134 154 10,000 -343 Descending Indianapolis Center
Fri 08:33:24 PM 40.1722 -85.2483 248° West 136 157 9,500 -585 Descending Indianapolis Center
Fri 08:34:26 PM 40.1581 -85.3000 250° West 143 165 8,800 -634 Descending Indianapolis Center
Fri 08:35:27 PM 40.1394 -85.3506 244° Southwest 148 170 8,200 -537 Descending Indianapolis Center
Fri 08:36:29 PM 40.1225 -85.4036 247° West 152 175 7,700 -484 Descending Indianapolis Center
Fri 08:37:31 PM 40.1050 -85.4553 246° West 152 175 7,200 -626 Descending Indianapolis Center
Fri 08:39:31 PM 40.0667 -85.5500 242° Southwest 150 173 5,800 -667 Descending Indianapolis TRACON
Fri 08:40:13 PM 40.0667 -85.6000 270° West 150 173 5,400 -588 Descending Indianapolis TRACON
Fri 08:41:13 PM 40.0500 -85.6500 246° West 153 176 4,800 -550 Descending Indianapolis TRACON
Fri 08:42:13 PM 40.0333 -85.7000 246° West 149 171 4,300 -556 Descending Indianapolis TRACON
Fri 08:43:01 PM 40.0167 -85.7333 237° Southwest 149 171 3,800 -667 Descending Indianapolis TRACON
Fri 08:44:01 PM 40.0000 -85.7833 246° West 154 177 3,100 -400 Descending Indianapolis TRACON
Fri 08:45:01 PM 39.9833 -85.8333 247° West 154 177 3,000 -100 Descending Indianapolis TRACON
Fri 08:46:01 PM 39.9833 -85.8833 270° West 145 167 2,900  Descending Indianapolis TRACON
Fri 08:47:13 PM 39.9667 -85.9500 252° West 138 159 3,000 45 Climbing Indianapolis TRACON
Fri 08:48:13 PM 39.9667 -86.0000 270° West 137 158 3,000 -53 Level Indianapolis TRACON
Fri 08:49:07 PM 39.9500 -86.0333 237° Southwest 136 157 2,900  Descending Indianapolis TRACON
Fri 08:50:07 PM 39.9500 -86.0833 270° West 139 160 3,000  Climbing Indianapolis TRACON
Fri 08:51:07 PM 39.9333 -86.1333 247° West 138 159 2,900 -100 Descending Indianapolis TRACON

Login

Don't have an account? Register now (free) for customized features, flight alerts, and more!